Time;durP1;ratioP1;P1;durP2;ratioP2;P2;SDS_P1;SDS_P2;PMS_P1;PMS_P2;Temp;Humidity;BMP_temperature;BMP_pressure;BME280_temperature;BME280_humidity;BME280_pressure;Samples;Min_cycle;Max_cycle;Signal;HPM_P1;HPM_P2
2021/07/13 00:00:27;;;;;;;2.42;1.92;;;;;;;16.83;100.00;93151.50;5074611;28;20554;-76
2021/07/13 00:02:53;;;;;;;3.97;1.85;;;;;;;16.77;100.00;93154.34;5074464;28;20206;-75
2021/07/13 00:05:21;;;;;;;2.78;1.88;;;;;;;16.65;100.00;93160.63;5074410;28;20199;-75
2021/07/13 00:07:49;;;;;;;7.72;2.50;;;;;;;16.65;100.00;93154.53;5074206;28;20229;-75
2021/07/13 00:10:20;;;;;;;7.10;2.13;;;;;;;16.65;100.00;93150.06;5074115;28;20569;-75
2021/07/13 00:12:47;;;;;;;7.03;2.63;;;;;;;16.68;100.00;93153.25;5074394;28;20198;-75
2021/07/13 00:15:18;;;;;;;4.88;2.00;;;;;;;16.62;100.00;93137.41;5074240;28;20661;-75
2021/07/13 00:17:45;;;;;;;4.22;1.60;;;;;;;16.65;100.00;93150.06;5069630;28;20251;-75
2021/07/13 00:20:13;;;;;;;3.03;1.40;;;;;;;16.61;100.00;93137.66;5054031;28;20199;-75
2021/07/13 00:22:40;;;;;;;1.58;1.40;;;;;;;16.47;100.00;93142.56;5054302;28;20575;-75
2021/07/13 00:25:08;;;;;;;5.13;1.60;;;;;;;16.45;100.00;93148.09;5053931;28;20733;-75
2021/07/13 00:27:36;;;;;;;2.05;1.40;;;;;;;16.42;100.00;93155.69;5068754;28;20199;-76
2021/07/13 00:30:03;;;;;;;3.03;1.52;;;;;;;16.45;100.00;93165.72;5073902;28;20195;-76
2021/07/13 00:32:29;;;;;;;4.93;1.52;;;;;;;16.44;100.00;93149.13;5073817;28;20195;-75
2021/07/13 00:34:56;;;;;;;4.63;1.50;;;;;;;16.41;100.00;93144.34;5073730;28;20210;-76
2021/07/13 00:37:22;;;;;;;3.13;1.60;;;;;;;16.40;100.00;93157.78;5073524;28;20445;-76
2021/07/13 00:39:49;;;;;;;2.25;1.60;;;;;;;16.39;100.00;93169.38;5073672;28;20604;-77
2021/07/13 00:42:17;;;;;;;3.35;1.80;;;;;;;16.37;100.00;93164.34;5073804;28;20202;-77
2021/07/13 00:44:47;;;;;;;2.33;1.45;;;;;;;16.39;100.00;93157.00;5073686;28;20198;-77
2021/07/13 00:47:18;;;;;;;2.25;1.30;;;;;;;16.30;100.00;93157.69;5073301;28;20207;-78
2021/07/13 00:49:45;;;;;;;4.13;1.38;;;;;;;16.27;100.00;93153.75;5073396;28;20198;-76
2021/07/13 00:52:13;;;;;;;2.72;1.65;;;;;;;16.25;100.00;93161.06;5073655;28;20205;-75
2021/07/13 00:54:42;;;;;;;3.40;1.40;;;;;;;16.24;100.00;93157.66;5073461;28;20199;-76
2021/07/13 00:57:10;;;;;;;7.50;1.48;;;;;;;16.19;100.00;93168.16;5073472;28;20203;-76
2021/07/13 00:59:38;;;;;;;4.60;1.85;;;;;;;16.16;100.00;93173.13;5073311;28;20280;-76
2021/07/13 01:02:08;;;;;;;3.60;1.50;;;;;;;16.04;100.00;93187.25;5072877;28;20550;-75
2021/07/13 01:04:36;;;;;;;3.72;1.50;;;;;;;15.88;100.00;93188.91;5073466;28;20253;-75
2021/07/13 01:07:07;;;;;;;8.45;1.40;;;;;;;15.79;100.00;93195.69;5073420;28;20195;-75
2021/07/13 01:09:44;;;;;;;3.50;1.23;;;;;;;15.66;100.00;93212.59;5073335;28;20228;-76
2021/07/13 01:12:20;;;;;;;2.72;1.70;;;;;;;15.73;100.00;93217.69;5073359;28;20203;-76
2021/07/13 01:14:52;;;;;;;2.75;1.50;;;;;;;15.54;100.00;93231.16;5073446;28;20198;-75
2021/07/13 01:17:26;;;;;;;3.05;1.50;;;;;;;15.48;100.00;93245.25;5073275;28;20205;-76
2021/07/13 01:20:05;;;;;;;5.88;2.00;;;;;;;15.45;100.00;93258.91;5073267;28;20198;-76
2021/07/13 01:22:37;;;;;;;11.50;2.70;;;;;;;15.43;100.00;93270.72;5073018;28;20199;-76
2021/07/13 01:25:08;;;;;;;6.50;2.83;;;;;;;15.43;100.00;93265.47;5072878;28;20649;-76
2021/07/13 01:28:04;;;;;;;7.85;2.70;;;;;;;15.45;100.00;93274.69;5073223;28;20240;-76
2021/07/13 01:30:33;;;;;;;7.93;3.20;;;;;;;15.43;100.00;93279.41;5029082;28;20218;-76
2021/07/13 01:33:07;;;;;;;7.57;2.60;;;;;;;15.46;100.00;93275.50;5052980;28;20215;-76
2021/07/13 01:35:42;;;;;;;5.22;2.67;;;;;;;15.41;100.00;93278.84;5052919;28;20230;-77
2021/07/13 01:38:10;;;;;;;7.88;2.53;;;;;;;15.38;100.00;93271.44;5052955;28;20227;-77
2021/07/13 01:40:40;;;;;;;5.43;1.85;;;;;;;15.20;100.00;93250.69;5052902;28;20238;-78
2021/07/13 01:43:10;;;;;;;3.42;1.80;;;;;;;15.24;100.00;93254.41;5052778;28;20609;-76
2021/07/13 01:45:37;;;;;;;3.58;2.33;;;;;;;15.29;100.00;93255.28;5052686;28;20574;-76
2021/07/13 01:48:04;;;;;;;4.32;2.22;;;;;;;15.28;100.00;93252.91;5052743;28;20762;-76
2021/07/13 01:50:33;;;;;;;4.00;1.88;;;;;;;15.26;100.00;93249.72;5052727;28;20654;-76
2021/07/13 01:53:00;;;;;;;3.90;2.30;;;;;;;15.27;100.00;93243.41;5052832;28;20210;-77
2021/07/13 01:55:27;;;;;;;5.90;2.65;;;;;;;15.24;100.00;93233.38;5052748;28;20204;-77
2021/07/13 01:57:54;;;;;;;4.82;2.17;;;;;;;15.20;100.00;93225.16;5052608;28;20199;-77
2021/07/13 02:00:22;;;;;;;5.03;2.10;;;;;;;15.21;100.00;93220.72;5055521;28;20203;-75
2021/07/13 02:02:49;;;;;;;7.50;1.80;;;;;;;15.22;100.00;93230.19;5056855;28;20191;-76
2021/07/13 02:05:16;;;;;;;4.70;2.75;;;;;;;15.23;100.00;93222.06;5056834;28;20207;-76
2021/07/13 02:07:49;;;;;;;2.53;1.70;;;;;;;15.22;100.00;93214.41;5056785;28;20199;-76
2021/07/13 02:10:16;;;;;;;4.18;2.00;;;;;;;15.19;100.00;93205.19;5056594;28;20729;-77
2021/07/13 02:12:43;;;;;;;2.25;1.60;;;;;;;15.19;100.00;93202.56;5056556;28;20229;-76
2021/07/13 02:15:11;;;;;;;2.05;1.60;;;;;;;15.21;100.00;93183.91;5056664;28;20199;-76
2021/07/13 02:17:39;;;;;;;2.60;1.50;;;;;;;15.20;100.00;93177.03;5056604;28;20203;-75
2021/07/13 02:20:08;;;;;;;5.00;1.42;;;;;;;15.10;100.00;93167.97;5056273;28;20689;-77
2021/07/13 02:22:34;;;;;;;2.03;1.38;;;;;;;15.09;100.00;93161.16;5056377;28;20854;-75
2021/07/13 02:25:01;;;;;;;6.40;2.05;;;;;;;15.15;100.00;93175.97;5056177;28;20200;-77
2021/07/13 02:27:31;;;;;;;3.47;1.50;;;;;;;15.17;100.00;93160.72;5056239;28;20210;-76
2021/07/13 02:29:59;;;;;;;3.72;1.60;;;;;;;15.19;100.00;93165.75;5074997;28;20205;-76
2021/07/13 02:32:31;;;;;;;3.10;1.48;;;;;;;15.18;100.00;93158.88;5076265;28;20206;-76
2021/07/13 02:35:00;;;;;;;2.38;1.27;;;;;;;15.15;100.00;93162.00;5076232;28;20209;-75
2021/07/13 02:37:28;;;;;;;4.63;1.50;;;;;;;15.10;100.00;93152.19;5076163;28;20214;-77
2021/07/13 02:39:55;;;;;;;2.38;1.30;;;;;;;15.11;100.00;93164.31;5075993;28;20233;-78
2021/07/13 02:42:22;;;;;;;3.55;1.48;;;;;;;15.09;100.00;93155.88;5075981;28;20202;-77
2021/07/13 02:44:51;;;;;;;4.22;1.50;;;;;;;15.08;100.00;93148.25;5075914;28;20661;-77
2021/07/13 02:47:18;;;;;;;6.03;1.55;;;;;;;15.09;100.00;93144.59;5075994;28;20225;-76
2021/07/13 02:49:48;;;;;;;2.60;1.20;;;;;;;15.11;100.00;93122.25;5075902;28;20202;-76
2021/07/13 02:52:18;;;;;;;5.18;1.50;;;;;;;15.07;100.00;93112.47;5075759;28;20203;-75
2021/07/13 02:54:45;;;;;;;5.50;1.40;;;;;;;15.04;100.00;93107.69;5075800;28;20210;-75
2021/07/13 02:57:12;;;;;;;3.63;1.20;;;;;;;15.06;100.00;93101.16;5075873;28;20202;-75
2021/07/13 02:59:41;;;;;;;3.67;1.42;;;;;;;15.07;100.00;93100.13;5075745;28;20305;-76
2021/07/13 03:02:08;;;;;;;3.97;1.10;;;;;;;15.03;100.00;93099.00;5075335;28;20205;-74
2021/07/13 03:04:35;;;;;;;5.53;1.13;;;;;;;15.07;100.00;93094.06;5075595;28;20229;-75
2021/07/13 03:07:02;;;;;;;5.90;1.15;;;;;;;15.09;100.00;93095.41;5075467;28;20202;-75
2021/07/13 03:09:30;;;;;;;7.63;1.00;;;;;;;15.08;100.00;93095.66;5075695;28;20202;-75
2021/07/13 03:11:57;;;;;;;2.22;1.17;;;;;;;15.03;100.00;93092.97;5074636;28;20203;-75
2021/07/13 03:14:25;;;;;;;2.03;1.30;;;;;;;15.05;100.00;93090.88;5075533;28;20203;-75
2021/07/13 03:16:52;;;;;;;2.28;1.40;;;;;;;15.05;100.00;93080.38;5075410;28;20201;-76
2021/07/13 03:19:19;;;;;;;2.20;1.20;;;;;;;15.04;100.00;93076.97;5075110;28;20222;-75
2021/07/13 03:21:51;;;;;;;2.72;1.10;;;;;;;15.03;100.00;93071.94;5075484;28;20199;-75
2021/07/13 03:24:18;;;;;;;3.75;1.25;;;;;;;14.99;100.00;93061.91;5075375;28;20231;-76
2021/07/13 03:26:47;;;;;;;2.47;1.70;;;;;;;15.03;100.00;93077.19;5074773;28;20454;-75
2021/07/13 03:29:13;;;;;;;5.18;1.38;;;;;;;15.03;100.00;93071.94;5075076;28;20783;-75
2021/07/13 03:31:42;;;;;;;2.28;1.48;;;;;;;15.02;100.00;93068.53;5075155;28;20202;-75
2021/07/13 03:34:09;;;;;;;1.92;1.40;;;;;;;15.03;100.00;93061.44;5074959;28;20229;-75
2021/07/13 03:36:37;;;;;;;1.80;1.20;;;;;;;15.01;100.00;93050.38;5075173;28;20202;-75
2021/07/13 03:39:08;;;;;;;4.15;1.30;;;;;;;15.13;100.00;93043.91;5075012;28;20234;-75
2021/07/13 03:41:35;;;;;;;2.63;1.10;;;;;;;15.07;100.00;93021.25;5075006;28;20203;-75
2021/07/13 03:44:06;;;;;;;4.10;1.13;;;;;;;15.03;100.00;93020.16;5075104;28;20207;-75
2021/07/13 03:46:34;;;;;;;2.85;1.38;;;;;;;15.03;100.00;93020.16;5074763;28;20728;-75
2021/07/13 03:49:02;;;;;;;2.22;1.25;;;;;;;15.11;100.00;93038.13;5074992;28;20222;-75
2021/07/13 03:51:38;;;;;;;4.57;1.45;;;;;;;15.13;100.00;93046.53;5074873;28;20273;-75
2021/07/13 03:54:05;;;;;;;2.70;1.67;;;;;;;15.14;100.00;93045.50;5074778;28;20204;-75
2021/07/13 03:56:32;;;;;;;2.97;1.70;;;;;;;15.15;100.00;93036.59;5074742;28;20194;-75
2021/07/13 03:58:58;;;;;;;2.47;1.33;;;;;;;15.15;100.00;93036.59;5074337;28;20222;-75
2021/07/13 04:01:26;;;;;;;4.40;1.50;;;;;;;15.14;100.00;93031.59;5074736;28;20332;-75
2021/07/13 04:03:53;;;;;;;4.00;1.90;;;;;;;15.18;100.00;93028.19;5074595;28;20206;-75
2021/07/13 04:06:19;;;;;;;5.20;1.58;;;;;;;15.20;100.00;93029.78;5074356;28;20707;-77
2021/07/13 04:08:46;;;;;;;4.25;1.58;;;;;;;15.23;100.00;93042.44;5074278;28;20202;-76
2021/07/13 04:11:12;;;;;;;3.25;1.55;;;;;;;15.24;100.00;93052.72;5074274;28;20588;-76
2021/07/13 04:13:39;;;;;;;3.85;1.52;;;;;;;15.29;100.00;93052.00;5074095;28;20661;-76
2021/07/13 04:16:05;;;;;;;4.93;1.80;;;;;;;15.27;100.00;93064.56;5074396;28;20203;-75
2021/07/13 04:18:33;;;;;;;4.88;1.88;;;;;;;15.28;100.00;93045.91;5074217;28;20203;-76
2021/07/13 04:21:00;;;;;;;4.97;1.65;;;;;;;15.27;100.00;93057.50;5074292;28;20206;-76
2021/07/13 04:23:26;;;;;;;3.47;2.03;;;;;;;15.27;100.00;93051.41;5074060;28;20249;-76
2021/07/13 04:25:53;;;;;;;1.48;1.27;;;;;;;15.25;100.00;93064.81;5073872;28;20231;-75
2021/07/13 04:28:19;;;;;;;3.88;1.75;;;;;;;15.26;100.00;93063.78;5073840;28;20654;-75
2021/07/13 04:30:46;;;;;;;5.57;1.63;;;;;;;15.23;100.00;93060.84;5074101;28;20608;-75
2021/07/13 04:33:12;;;;;;;5.00;1.50;;;;;;;15.23;100.00;93066.13;5073972;28;20203;-76
2021/07/13 04:35:40;;;;;;;2.42;1.60;;;;;;;15.24;100.00;93071.13;5073868;28;20202;-75
2021/07/13 04:38:07;;;;;;;2.75;1.40;;;;;;;15.29;100.00;93070.41;5073824;28;20202;-75
2021/07/13 04:40:34;;;;;;;2.60;1.63;;;;;;;15.31;100.00;93058.56;5073552;28;20237;-75
2021/07/13 04:43:00;;;;;;;4.57;1.60;;;;;;;15.30;100.00;93058.81;5073677;28;20202;-75
2021/07/13 04:45:26;;;;;;;7.43;1.58;;;;;;;15.24;100.00;93057.97;5073779;28;20207;-76
2021/07/13 04:47:53;;;;;;;3.53;1.55;;;;;;;15.22;100.00;93061.88;5073745;28;20607;-75
2021/07/13 04:50:19;;;;;;;5.03;2.15;;;;;;;15.18;100.00;93058.97;5073484;28;20682;-76
2021/07/13 04:52:47;;;;;;;5.95;2.10;;;;;;;15.19;100.00;93063.19;5073380;28;20794;-76
2021/07/13 04:55:17;;;;;;;6.60;2.50;;;;;;;15.22;100.00;93064.53;5073479;28;20195;-76
2021/07/13 04:57:43;;;;;;;4.50;2.42;;;;;;;15.18;100.00;93062.38;5073630;28;20228;-76
2021/07/13 05:00:11;;;;;;;10.80;2.40;;;;;;;15.12;100.00;93071.28;5073338;28;20226;-76
2021/07/13 05:02:38;;;;;;;3.47;2.22;;;;;;;15.20;100.00;93069.22;5073078;28;20264;-77
2021/07/13 05:05:06;;;;;;;4.68;2.08;;;;;;;15.29;100.00;93070.41;5073386;28;20194;-76
2021/07/13 05:07:32;;;;;;;6.63;2.40;;;;;;;15.23;100.00;93080.06;5073331;28;20203;-76
2021/07/13 05:10:00;;;;;;;3.63;1.80;;;;;;;15.28;100.00;93076.69;5072751;28;20218;-76
2021/07/13 05:12:27;;;;;;;3.30;2.17;;;;;;;15.34;100.00;93088.88;5073389;28;20202;-76
2021/07/13 05:14:53;;;;;;;4.53;2.67;;;;;;;15.34;100.00;93094.13;5073308;28;20206;-76
2021/07/13 05:17:19;;;;;;;4.55;2.90;;;;;;;15.30;100.00;93104.31;5073232;28;20206;-76
2021/07/13 05:19:49;;;;;;;4.57;2.47;;;;;;;15.24;100.00;93112.41;5073100;28;20280;-78
2021/07/13 05:22:15;;;;;;;3.95;2.80;;;;;;;15.28;100.00;93106.41;5073068;28;20210;-76
2021/07/13 05:24:42;;;;;;;3.42;2.20;;;;;;;15.26;100.00;93091.94;5072982;28;20195;-77
2021/07/13 05:27:11;;;;;;;2.60;1.92;;;;;;;15.36;100.00;93077.03;5073050;28;20230;-76
2021/07/13 05:29:39;;;;;;;3.55;1.90;;;;;;;15.57;100.00;93084.34;5073118;28;20297;-76
2021/07/13 05:32:05;;;;;;;4.93;1.23;;;;;;;15.75;100.00;93099.78;5073123;28;20205;-76
2021/07/13 05:34:32;;;;;;;2.80;1.58;;;;;;;15.71;100.00;93111.88;5072701;28;20645;-76
2021/07/13 05:36:58;;;;;;;3.65;1.40;;;;;;;15.72;100.00;93110.81;5072917;28;20206;-76
2021/07/13 05:39:25;;;;;;;2.03;1.25;;;;;;;15.64;100.00;93119.16;5073034;28;20580;-78
2021/07/13 05:41:51;;;;;;;2.40;1.40;;;;;;;15.61;100.00;93095.97;5072980;28;20195;-77
2021/07/13 05:44:19;;;;;;;4.78;1.27;;;;;;;15.60;100.00;93086.47;5072934;28;20198;-76
2021/07/13 05:46:45;;;;;;;3.63;1.60;;;;;;;15.63;100.00;93091.25;5072916;28;20199;-76
2021/07/13 05:49:12;;;;;;;2.38;1.05;;;;;;;15.64;100.00;93098.13;5072898;28;20206;-76
2021/07/13 05:51:38;;;;;;;4.28;1.20;;;;;;;15.53;100.00;93076.94;5072787;28;20285;-77
2021/07/13 05:54:05;;;;;;;4.18;1.10;;;;;;;15.48;100.00;93063.75;5072901;28;20199;-76
2021/07/13 05:56:31;;;;;;;1.42;1.02;;;;;;;15.42;100.00;93061.31;5072912;28;20199;-77
2021/07/13 05:58:58;;;;;;;2.50;1.38;;;;;;;15.33;100.00;93053.06;5072362;28;20199;-76
2021/07/13 06:01:25;;;;;;;1.75;1.10;;;;;;;15.32;100.00;93064.63;5072950;28;20199;-76
2021/07/13 06:03:53;;;;;;;3.92;1.52;;;;;;;15.36;100.00;93071.78;5072700;28;20198;-75
2021/07/13 06:06:20;;;;;;;4.22;1.30;;;;;;;15.34;100.00;93083.59;5072926;28;20286;-76
2021/07/13 06:08:46;;;;;;;5.10;1.60;;;;;;;15.27;100.00;93098.75;5072835;28;20201;-75
2021/07/13 06:11:13;;;;;;;3.95;1.58;;;;;;;15.31;100.00;93102.50;5072803;28;20195;-76
2021/07/13 06:13:39;;;;;;;2.33;1.45;;;;;;;15.26;100.00;93097.97;5072775;28;20535;-76
2021/07/13 06:16:06;;;;;;;6.00;1.40;;;;;;;15.17;100.00;93089.72;5072653;28;20228;-76
2021/07/13 06:18:34;;;;;;;4.13;0.98;;;;;;;15.15;100.00;93096.25;5072509;28;20203;-77
2021/07/13 06:21:01;;;;;;;3.10;1.10;;;;;;;15.21;100.00;93097.91;5072206;28;20826;-78
2021/07/13 06:23:27;;;;;;;0.95;0.88;;;;;;;15.15;100.00;93102.34;5072685;28;20248;-77
2021/07/13 06:25:53;;;;;;;2.03;1.02;;;;;;;15.17;100.00;93109.94;5072288;28;20720;-77
2021/07/13 06:28:20;;;;;;;2.95;1.20;;;;;;;15.17;100.00;93113.41;5072152;28;20649;-77
2021/07/13 06:30:47;;;;;;;1.42;1.00;;;;;;;15.12;100.00;93113.34;5072525;28;20198;-78
2021/07/13 06:33:13;;;;;;;2.05;1.05;;;;;;;15.10;100.00;93115.41;5072374;28;20206;-77
2021/07/13 06:35:45;;;;;;;3.60;1.77;;;;;;;15.13;100.00;93119.38;5072438;28;20207;-78
2021/07/13 06:38:11;;;;;;;4.65;2.28;;;;;;;15.12;100.00;93113.34;5072484;28;20205;-76
2021/07/13 06:40:38;;;;;;;5.15;2.60;;;;;;;15.18;100.00;93116.81;5072370;28;20226;-78
2021/07/13 06:43:04;;;;;;;8.18;2.67;;;;;;;15.21;100.00;93116.31;5072226;28;20210;-79
2021/07/13 06:45:31;;;;;;;6.55;3.10;;;;;;;15.18;100.00;93112.34;5072197;28;20547;-76
2021/07/13 06:47:57;;;;;;;7.82;2.85;;;;;;;15.15;100.00;93107.59;5075745;28;20198;-78
2021/07/13 06:50:25;;;;;;;5.07;3.05;;;;;;;15.17;100.00;93096.81;5076034;28;20213;-76
2021/07/13 06:52:54;;;;;;;5.10;3.00;;;;;;;15.20;100.00;93092.91;5075907;28;20302;-76
2021/07/13 06:55:21;;;;;;;4.38;2.58;;;;;;;15.18;100.00;93093.94;5075815;28;20302;-78
2021/07/13 06:57:47;;;;;;;4.63;2.97;;;;;;;15.25;100.00;93100.84;5075821;28;20214;-75
2021/07/13 07:00:15;;;;;;;7.28;3.10;;;;;;;15.27;100.00;93102.19;5075572;28;20230;-77
2021/07/13 07:02:41;;;;;;;9.13;3.38;;;;;;;15.38;100.00;93095.22;5075767;28;20203;-76
2021/07/13 07:05:09;;;;;;;6.50;3.55;;;;;;;15.35;100.00;93106.22;5075721;28;20256;-76
2021/07/13 07:07:43;;;;;;;4.35;3.03;;;;;;;15.40;100.00;93106.28;5075263;28;20285;-75
2021/07/13 07:10:12;;;;;;;3.72;2.65;;;;;;;15.45;100.00;93111.59;5075658;28;20238;-78
2021/07/13 07:12:38;;;;;;;5.55;2.72;;;;;;;15.36;100.00;93110.44;5075386;28;20653;-78
2021/07/13 07:15:06;;;;;;;3.40;2.13;;;;;;;15.33;100.00;93126.72;5075332;28;20203;-78
2021/07/13 07:17:32;;;;;;;1.20;1.02;;;;;;;14.93;100.00;93130.44;5075477;28;20207;-75
2021/07/13 07:20:01;;;;;;;0.47;0.40;;;;;;;14.75;100.00;93140.19;5075424;28;20589;-77
2021/07/13 07:22:27;;;;;;;2.15;0.50;;;;;;;14.68;100.00;93133.50;5075369;28;20201;-75
2021/07/13 07:24:54;;;;;;;0.43;0.40;;;;;;;14.60;100.00;93122.41;5075080;28;20207;-76
2021/07/13 07:27:22;;;;;;;0.70;0.40;;;;;;;14.57;100.00;93124.66;5075393;28;20203;-77
2021/07/13 07:29:48;;;;;;;0.90;0.57;;;;;;;14.75;100.00;93126.25;5075394;28;20277;-78
2021/07/13 07:32:14;;;;;;;0.38;0.38;;;;;;;14.75;100.00;93129.66;5075256;28;20211;-78
2021/07/13 07:34:41;;;;;;;0.50;0.50;;;;;;;14.83;100.00;93127.69;5075199;28;20206;-77
2021/07/13 07:37:07;;;;;;;0.95;0.35;;;;;;;14.74;100.00;93129.94;5075167;28;20202;-77
2021/07/13 07:39:34;;;;;;;3.92;0.30;;;;;;;14.74;100.00;93122.84;5074970;28;20194;-77
2021/07/13 07:42:00;;;;;;;0.40;0.40;;;;;;;14.64;100.00;93127.13;5074795;28;20199;-77
2021/07/13 07:44:28;;;;;;;0.25;0.25;;;;;;;14.71;100.00;93133.81;5075133;28;20565;-77
2021/07/13 07:46:55;;;;;;;1.08;0.30;;;;;;;14.75;100.00;93123.63;5075026;28;20203;-76
2021/07/13 07:49:21;;;;;;;0.22;0.22;;;;;;;14.63;100.00;93125.56;5074943;28;20199;-79
2021/07/13 07:51:48;;;;;;;0.32;0.30;;;;;;;14.53;100.00;93124.34;5060609;28;20214;-76
2021/07/13 07:54:14;;;;;;;0.20;0.20;;;;;;;14.64;100.00;93138.47;5054645;28;20654;-82
2021/07/13 07:56:41;;;;;;;0.30;0.30;;;;;;;14.51;100.00;93136.94;5054175;28;20664;-76
2021/07/13 07:59:07;;;;;;;0.63;0.20;;;;;;;14.42;100.00;93146.22;5054406;28;20210;-76
2021/07/13 08:01:35;;;;;;;0.32;0.25;;;;;;;14.36;100.00;93145.38;5072366;28;20222;-78
2021/07/13 08:04:01;;;;;;;0.25;0.25;;;;;;;14.34;100.00;93159.75;5074304;28;20203;-76
2021/07/13 08:06:28;;;;;;;0.20;0.20;;;;;;;14.08;100.00;93154.09;5074547;28;20211;-77
2021/07/13 08:08:54;;;;;;;1.38;0.30;;;;;;;14.06;100.00;93171.94;5074271;28;20206;-76
2021/07/13 08:11:21;;;;;;;1.65;0.30;;;;;;;14.02;100.00;93171.63;5074109;28;20198;-76
2021/07/13 08:13:47;;;;;;;0.20;0.20;;;;;;;13.93;100.00;93186.13;5074466;28;20214;-78
2021/07/13 08:16:13;;;;;;;0.10;0.10;;;;;;;13.90;100.00;93199.72;5074285;28;20210;-78
2021/07/13 08:18:42;;;;;;;0.25;0.20;;;;;;;13.77;100.00;93206.06;5074199;28;20203;-76
2021/07/13 08:21:08;;;;;;;0.30;0.30;;;;;;;13.81;100.00;93209.03;5073896;28;20656;-76
2021/07/13 08:23:35;;;;;;;0.60;0.30;;;;;;;13.75;100.00;93223.84;5073977;28;20719;-79
2021/07/13 08:26:02;;;;;;;1.97;0.37;;;;;;;13.73;100.00;93222.50;5073683;28;20230;-82
2021/07/13 08:28:28;;;;;;;1.02;0.52;;;;;;;13.66;100.00;93220.81;5074067;28;20201;-80
2021/07/13 08:30:55;;;;;;;2.30;0.40;;;;;;;13.61;100.00;93209.44;5073840;28;20248;-81
2021/07/13 08:33:21;;;;;;;0.30;0.20;;;;;;;13.48;100.00;93213.09;5073720;28;20844;-81
2021/07/13 08:35:49;;;;;;;0.95;0.30;;;;;;;13.55;100.00;93211.13;5074066;28;20226;-83
2021/07/13 08:38:15;;;;;;;0.38;0.38;;;;;;;13.57;100.00;93214.31;5074086;28;20221;-79
2021/07/13 08:40:42;;;;;;;0.65;0.47;;;;;;;13.61;100.00;93225.97;5073687;28;20219;-83
2021/07/13 08:43:09;;;;;;;0.30;0.30;;;;;;;13.47;100.00;93232.47;5073925;28;20203;-80
2021/07/13 08:45:35;;;;;;;0.45;0.30;;;;;;;13.29;100.00;93246.53;5057839;28;20218;-80
2021/07/13 08:48:02;;;;;;;1.80;0.40;;;;;;;13.19;100.00;93262.81;5053782;28;20203;-82
2021/07/13 08:50:28;;;;;;;0.30;0.30;;;;;;;13.01;100.00;93283.91;5053761;28;20215;-79
2021/07/13 08:52:56;;;;;;;0.30;0.30;;;;;;;13.00;100.00;93288.34;5053516;28;20205;-82
2021/07/13 08:55:24;;;;;;;0.40;0.40;;;;;;;13.07;100.00;93298.72;5053708;28;20199;-82
2021/07/13 08:57:51;;;;;;;1.13;0.50;;;;;;;12.95;100.00;93298.69;5051497;28;20206;-82
2021/07/13 09:00:20;;;;;;;1.70;0.40;;;;;;;13.03;100.00;93314.09;5052533;28;20227;-80
2021/07/13 09:03:06;;;;;;;1.67;0.40;;;;;;;12.87;100.00;93325.22;5052707;28;20257;-83
2021/07/13 09:05:43;;;;;;;0.50;0.40;;;;;;;12.84;100.00;93321.25;5073479;28;20618;-82
2021/07/13 09:08:19;;;;;;;0.33;0.33;;;;;;;12.74;100.00;93307.91;5073856;28;20267;-81
2021/07/13 09:11:06;;;;;;;1.67;0.43;;;;;;;12.70;100.00;93314.63;5073463;28;20206;-81
2021/07/13 09:13:36;;;;;;;0.63;0.27;;;;;;;12.66;100.00;93306.41;5073135;28;20209;-80
2021/07/13 09:16:05;;;;;;;1.30;0.50;;;;;;;12.64;100.00;93281.47;5073610;28;20198;-83
2021/07/13 09:18:33;;;;;;;0.50;0.40;;;;;;;12.61;100.00;93253.09;5072187;28;20430;-79
2021/07/13 09:21:09;;;;;;;2.27;0.50;;;;;;;12.59;100.00;93235.81;5073399;28;20222;-83
2021/07/13 09:23:58;;;;;;;0.40;0.40;;;;;;;12.54;100.00;93222.59;5073601;28;20206;-79
2021/07/13 09:26:40;;;;;;;0.30;0.30;;;;;;;12.50;100.00;93212.78;5054748;28;20566;-85
2021/07/13 09:29:08;;;;;;;0.40;0.30;;;;;;;12.53;100.00;93186.94;5064596;28;20201;-81
2021/07/13 09:31:34;;;;;;;0.97;0.40;;;;;;;12.57;100.00;93189.91;5074795;28;20207;-83
2021/07/13 09:34:02;;;;;;;1.60;0.40;;;;;;;12.52;100.00;93201.09;5073850;28;20206;-82
2021/07/13 09:36:28;;;;;;;1.33;0.53;;;;;;;12.64;100.00;93216.00;5072971;28;20203;-83
2021/07/13 09:38:56;;;;;;;0.47;0.40;;;;;;;12.74;100.00;93222.28;5072907;28;20275;-80
2021/07/13 09:41:24;;;;;;;0.50;0.50;;;;;;;12.82;100.00;93243.91;5072728;28;20230;-81
2021/07/13 09:43:53;;;;;;;0.70;0.40;;;;;;;12.88;100.00;93259.50;5072899;28;20701;-80
2021/07/13 09:46:34;;;;;;;4.87;0.63;;;;;;;13.12;100.00;93264.75;5072814;28;20790;-80
2021/07/13 09:49:15;;;;;;;0.53;0.40;;;;;;;13.44;100.00;93291.44;5072971;28;20232;-80
2021/07/13 09:51:43;;;;;;;1.37;0.40;;;;;;;13.50;100.00;93302.84;5073010;28;20229;-80
2021/07/13 09:54:37;;;;;;;0.83;0.40;;;;;;;13.56;100.00;93327.34;5072814;28;20214;-80
2021/07/13 09:57:06;;;;;;;0.57;0.47;;;;;;;13.23;100.00;93341.81;5072812;28;20206;-81
2021/07/13 09:59:33;;;;;;;1.27;0.47;;;;;;;13.33;100.00;93344.69;5072671;28;20203;-80
2021/07/13 10:02:03;;;;;;;1.00;0.50;;;;;;;13.27;100.00;93348.19;5072795;28;20295;-79
2021/07/13 10:04:30;;;;;;;1.07;0.57;;;;;;;13.35;100.00;93353.13;5072902;28;20203;-80
2021/07/13 10:07:02;;;;;;;0.52;0.32;;;;;;;13.38;100.00;93362.38;5072862;28;20201;-80
2021/07/13 10:09:34;;;;;;;0.30;0.30;;;;;;;13.33;100.00;93355.97;5072842;28;20260;-80
2021/07/13 10:12:07;;;;;;;0.40;0.40;;;;;;;13.62;100.00;93340.34;5072635;28;20202;-79
2021/07/13 10:14:33;;;;;;;0.25;0.25;;;;;;;13.39;100.00;93337.72;5072824;28;20232;-78
2021/07/13 10:17:02;;;;;;;0.93;0.60;;;;;;;13.73;100.00;93336.09;5072767;28;20199;-80
2021/07/13 10:19:30;;;;;;;0.87;0.43;;;;;;;13.71;100.00;93340.00;5072718;28;20206;-82
2021/07/13 10:21:57;;;;;;;4.07;0.95;;;;;;;13.84;100.00;93351.03;5076266;28;20624;-80
2021/07/13 10:24:25;;;;;;;0.50;0.45;;;;;;;13.83;100.00;93349.44;5076344;28;20203;-78
2021/07/13 10:26:54;;;;;;;1.15;0.40;;;;;;;13.78;100.00;93353.78;5076170;28;20230;-80
2021/07/13 10:29:49;;;;;;;0.30;0.30;;;;;;;13.71;100.00;93353.13;5076419;28;20203;-80
2021/07/13 10:32:39;;;;;;;0.52;0.45;;;;;;;13.65;100.00;93350.38;5051876;28;20607;-79
2021/07/13 10:35:16;;;;;;;3.13;0.30;;;;;;;13.88;100.00;93346.13;5076449;28;20191;-80
2021/07/13 10:37:46;;;;;;;0.38;0.22;;;;;;;13.96;100.00;93323.97;5076051;28;20202;-78
2021/07/13 10:40:14;;;;;;;0.40;0.40;;;;;;;14.23;100.00;93314.50;5076186;28;20654;-79
2021/07/13 10:42:52;;;;;;;1.92;0.47;;;;;;;14.64;100.00;93317.13;5075934;28;20227;-79
2021/07/13 10:45:23;;;;;;;0.60;0.30;;;;;;;14.99;100.00;93326.63;5075490;28;20909;-79
2021/07/13 10:48:01;;;;;;;0.22;0.22;;;;;;;15.22;100.00;93346.72;5076188;28;20252;-78
2021/07/13 10:50:51;;;;;;;0.52;0.38;;;;;;;16.07;100.00;93344.75;5076052;28;20198;-77
2021/07/13 10:53:21;;;;;;;0.55;0.30;;;;;;;16.35;100.00;93345.59;5075822;28;20561;-77
2021/07/13 10:55:51;;;;;;;0.25;0.20;;;;;;;15.91;100.00;93330.59;5075719;28;20566;-76
2021/07/13 10:58:22;;;;;;;0.30;0.20;;;;;;;16.23;100.00;93329.91;5075685;28;20205;-78
2021/07/13 11:01:20;;;;;;;3.05;0.40;;;;;;;16.24;100.00;93334.16;5075726;28;20223;-76
2021/07/13 11:04:00;;;;;;;0.15;0.15;;;;;;;15.91;100.00;93311.38;5075726;28;20207;-76
2021/07/13 11:06:42;;;;;;;4.32;0.40;;;;;;;15.93;100.00;93325.06;5075447;28;20202;-78
2021/07/13 11:09:31;;;;;;;0.30;0.30;;;;;;;15.67;100.00;93310.75;5075604;28;20658;-79
2021/07/13 11:12:10;;;;;;;1.73;0.43;;;;;;;16.18;100.00;93327.22;5066155;28;20658;-77
2021/07/13 11:14:48;;;;;;;0.47;0.30;;;;;;;15.83;100.00;93331.00;5075454;28;20729;-78
2021/07/13 11:17:21;;;;;;;1.38;0.30;;;;;;;15.74;100.00;93340.34;5075663;28;20203;-77
2021/07/13 11:19:47;;;;;;;1.02;0.40;;;;;;;15.91;100.00;93348.22;5075315;28;20666;-78
2021/07/13 11:22:16;;;;;;;0.30;0.30;;;;;;;15.95;100.00;93351.94;5075352;28;20230;-79
2021/07/13 11:24:43;;;;;;;0.40;0.40;;;;;;;15.76;100.00;93343.56;5075295;28;20199;-77
2021/07/13 11:27:09;;;;;;;0.80;0.40;;;;;;;16.23;100.00;93343.06;5075088;28;20238;-76
2021/07/13 11:29:36;;;;;;;0.77;0.47;;;;;;;16.62;100.00;93342.97;5075268;28;20260;-76
2021/07/13 11:32:05;;;;;;;0.82;0.43;;;;;;;17.15;100.00;93345.06;5074574;28;20203;-75